sensor_id;sensor_type;location;lat;lon;timestamp;P1;durP1;ratioP1;P2;durP2;ratioP2
81801;SDS011;71199;52.490;5.448;2023-11-18T00:00:42;68.90;;;26.83;;
81801;SDS011;71199;52.490;5.448;2023-11-18T00:03:07;75.17;;;27.50;;
81801;SDS011;71199;52.490;5.448;2023-11-18T00:05:33;70.80;;;28.00;;
81801;SDS011;71199;52.490;5.448;2023-11-18T00:07:58;69.03;;;28.77;;
81801;SDS011;71199;52.490;5.448;2023-11-18T00:10:23;61.30;;;26.00;;
81801;SDS011;71199;52.490;5.448;2023-11-18T00:12:49;66.60;;;25.93;;
81801;SDS011;71199;52.490;5.448;2023-11-18T00:15:15;67.82;;;28.60;;
81801;SDS011;71199;52.490;5.448;2023-11-18T00:17:40;64.88;;;27.35;;
81801;SDS011;71199;52.490;5.448;2023-11-18T00:20:05;60.33;;;25.17;;
81801;SDS011;71199;52.490;5.448;2023-11-18T00:22:37;67.47;;;26.05;;
81801;SDS011;71199;52.490;5.448;2023-11-18T00:25:04;67.20;;;26.00;;
81801;SDS011;71199;52.490;5.448;2023-11-18T00:27:30;65.57;;;26.92;;
81801;SDS011;71199;52.490;5.448;2023-11-18T00:29:56;65.93;;;27.40;;
81801;SDS011;71199;52.490;5.448;2023-11-18T00:32:22;63.25;;;27.13;;
81801;SDS011;71199;52.490;5.448;2023-11-18T00:34:47;68.07;;;26.05;;
81801;SDS011;71199;52.490;5.448;2023-11-18T00:37:13;66.20;;;25.95;;
81801;SDS011;71199;52.490;5.448;2023-11-18T00:39:38;59.00;;;24.77;;
81801;SDS011;71199;52.490;5.448;2023-11-18T00:42:03;57.67;;;25.37;;
81801;SDS011;71199;52.490;5.448;2023-11-18T00:44:29;65.07;;;24.77;;
81801;SDS011;71199;52.490;5.448;2023-11-18T00:46:54;56.83;;;24.50;;
81801;SDS011;71199;52.490;5.448;2023-11-18T00:49:21;63.40;;;26.52;;
81801;SDS011;71199;52.490;5.448;2023-11-18T00:51:46;62.87;;;25.33;;
81801;SDS011;71199;52.490;5.448;2023-11-18T00:54:12;72.47;;;26.27;;
81801;SDS011;71199;52.490;5.448;2023-11-18T00:56:37;61.40;;;26.40;;
81801;SDS011;71199;52.490;5.448;2023-11-18T00:59:03;68.03;;;27.33;;
81801;SDS011;71199;52.490;5.448;2023-11-18T01:01:28;69.55;;;27.42;;
81801;SDS011;71199;52.490;5.448;2023-11-18T01:03:54;61.40;;;27.23;;
81801;SDS011;71199;52.490;5.448;2023-11-18T01:06:19;68.17;;;27.37;;
81801;SDS011;71199;52.490;5.448;2023-11-18T01:08:45;62.30;;;26.33;;
81801;SDS011;71199;52.490;5.448;2023-11-18T01:11:15;63.85;;;25.77;;
81801;SDS011;71199;52.490;5.448;2023-11-18T01:13:44;67.43;;;27.02;;
81801;SDS011;71199;52.490;5.448;2023-11-18T01:16:10;59.50;;;24.38;;
81801;SDS011;71199;52.490;5.448;2023-11-18T01:18:36;70.85;;;26.67;;
81801;SDS011;71199;52.490;5.448;2023-11-18T01:21:01;59.67;;;25.27;;
81801;SDS011;71199;52.490;5.448;2023-11-18T01:23:27;59.67;;;24.70;;
81801;SDS011;71199;52.490;5.448;2023-11-18T01:25:53;63.60;;;26.40;;
81801;SDS011;71199;52.490;5.448;2023-11-18T01:28:18;61.90;;;25.58;;
81801;SDS011;71199;52.490;5.448;2023-11-18T01:30:43;60.35;;;25.58;;
81801;SDS011;71199;52.490;5.448;2023-11-18T01:33:10;67.88;;;26.58;;
81801;SDS011;71199;52.490;5.448;2023-11-18T01:35:35;64.68;;;26.58;;
81801;SDS011;71199;52.490;5.448;2023-11-18T01:38:01;63.10;;;28.13;;
81801;SDS011;71199;52.490;5.448;2023-11-18T01:40:26;67.33;;;25.37;;
81801;SDS011;71199;52.490;5.448;2023-11-18T01:42:54;65.07;;;26.42;;
81801;SDS011;71199;52.490;5.448;2023-11-18T01:45:20;64.38;;;27.52;;
81801;SDS011;71199;52.490;5.448;2023-11-18T01:47:45;69.75;;;27.98;;
81801;SDS011;71199;52.490;5.448;2023-11-18T01:50:13;62.58;;;26.42;;
81801;SDS011;71199;52.490;5.448;2023-11-18T01:52:40;62.85;;;28.15;;
81801;SDS011;71199;52.490;5.448;2023-11-18T01:55:06;67.20;;;27.65;;
81801;SDS011;71199;52.490;5.448;2023-11-18T01:57:32;58.38;;;25.20;;
81801;SDS011;71199;52.490;5.448;2023-11-18T01:59:59;59.45;;;26.17;;
81801;SDS011;71199;52.490;5.448;2023-11-18T02:02:25;49.90;;;24.10;;
81801;SDS011;71199;52.490;5.448;2023-11-18T02:04:51;59.40;;;25.10;;
81801;SDS011;71199;52.490;5.448;2023-11-18T02:07:17;51.10;;;24.00;;
81801;SDS011;71199;52.490;5.448;2023-11-18T02:09:43;54.03;;;24.73;;
81801;SDS011;71199;52.490;5.448;2023-11-18T02:12:31;55.22;;;23.55;;
81801;SDS011;71199;52.490;5.448;2023-11-18T02:15:06;53.60;;;24.13;;
81801;SDS011;71199;52.490;5.448;2023-11-18T02:17:34;45.47;;;22.00;;
81801;SDS011;71199;52.490;5.448;2023-11-18T02:20:03;51.33;;;22.92;;
81801;SDS011;71199;52.490;5.448;2023-11-18T02:22:40;53.28;;;23.70;;
81801;SDS011;71199;52.490;5.448;2023-11-18T02:25:07;48.80;;;23.70;;
81801;SDS011;71199;52.490;5.448;2023-11-18T02:27:35;60.40;;;24.75;;
81801;SDS011;71199;52.490;5.448;2023-11-18T02:30:01;56.75;;;24.70;;
81801;SDS011;71199;52.490;5.448;2023-11-18T02:32:39;55.50;;;24.88;;
81801;SDS011;71199;52.490;5.448;2023-11-18T02:35:15;51.72;;;24.70;;
81801;SDS011;71199;52.490;5.448;2023-11-18T02:37:49;64.65;;;24.75;;
81801;SDS011;71199;52.490;5.448;2023-11-18T02:40:20;57.95;;;24.35;;
81801;SDS011;71199;52.490;5.448;2023-11-18T02:42:51;59.10;;;24.23;;
81801;SDS011;71199;52.490;5.448;2023-11-18T02:45:18;58.17;;;26.48;;
81801;SDS011;71199;52.490;5.448;2023-11-18T02:47:45;60.63;;;25.30;;
81801;SDS011;71199;52.490;5.448;2023-11-18T02:50:11;59.57;;;25.43;;
81801;SDS011;71199;52.490;5.448;2023-11-18T02:52:38;54.13;;;23.88;;
81801;SDS011;71199;52.490;5.448;2023-11-18T02:55:04;56.63;;;25.00;;
81801;SDS011;71199;52.490;5.448;2023-11-18T02:57:36;57.22;;;26.50;;
81801;SDS011;71199;52.490;5.448;2023-11-18T03:00:05;52.13;;;25.40;;
81801;SDS011;71199;52.490;5.448;2023-11-18T03:02:36;63.08;;;25.85;;
81801;SDS011;71199;52.490;5.448;2023-11-18T03:05:05;56.22;;;24.95;;
81801;SDS011;71199;52.490;5.448;2023-11-18T03:07:32;52.42;;;24.80;;
81801;SDS011;71199;52.490;5.448;2023-11-18T03:09:58;53.40;;;24.98;;
81801;SDS011;71199;52.490;5.448;2023-11-18T03:12:25;55.13;;;24.33;;
81801;SDS011;71199;52.490;5.448;2023-11-18T03:14:53;62.55;;;26.13;;
81801;SDS011;71199;52.490;5.448;2023-11-18T03:17:19;55.80;;;24.83;;
81801;SDS011;71199;52.490;5.448;2023-11-18T03:19:45;54.00;;;24.02;;
81801;SDS011;71199;52.490;5.448;2023-11-18T03:22:10;55.30;;;23.60;;
81801;SDS011;71199;52.490;5.448;2023-11-18T03:24:37;54.42;;;24.52;;
81801;SDS011;71199;52.490;5.448;2023-11-18T03:27:03;56.20;;;25.87;;
81801;SDS011;71199;52.490;5.448;2023-11-18T03:29:28;53.67;;;24.20;;
81801;SDS011;71199;52.490;5.448;2023-11-18T03:31:54;51.45;;;24.90;;
81801;SDS011;71199;52.490;5.448;2023-11-18T03:34:19;55.63;;;24.60;;
81801;SDS011;71199;52.490;5.448;2023-11-18T03:36:47;56.42;;;26.45;;
81801;SDS011;71199;52.490;5.448;2023-11-18T03:39:13;55.17;;;23.52;;
81801;SDS011;71199;52.490;5.448;2023-11-18T03:41:39;53.53;;;25.92;;
81801;SDS011;71199;52.490;5.448;2023-11-18T03:44:09;52.35;;;22.58;;
81801;SDS011;71199;52.490;5.448;2023-11-18T03:46:37;54.85;;;27.33;;
81801;SDS011;71199;52.490;5.448;2023-11-18T03:49:03;57.05;;;25.70;;
81801;SDS011;71199;52.490;5.448;2023-11-18T03:51:28;56.08;;;25.85;;
81801;SDS011;71199;52.490;5.448;2023-11-18T03:53:54;54.85;;;23.50;;
81801;SDS011;71199;52.490;5.448;2023-11-18T03:56:19;47.80;;;23.95;;
81801;SDS011;71199;52.490;5.448;2023-11-18T03:58:45;59.58;;;24.95;;
81801;SDS011;71199;52.490;5.448;2023-11-18T04:01:24;54.65;;;24.17;;
81801;SDS011;71199;52.490;5.448;2023-11-18T04:03:52;53.65;;;23.67;;
81801;SDS011;71199;52.490;5.448;2023-11-18T04:06:18;48.20;;;22.80;;
81801;SDS011;71199;52.490;5.448;2023-11-18T04:08:46;53.22;;;24.67;;
81801;SDS011;71199;52.490;5.448;2023-11-18T04:11:12;50.55;;;24.45;;
81801;SDS011;71199;52.490;5.448;2023-11-18T04:13:39;47.35;;;23.77;;
81801;SDS011;71199;52.490;5.448;2023-11-18T04:16:11;50.42;;;23.85;;
81801;SDS011;71199;52.490;5.448;2023-11-18T04:18:38;53.25;;;23.45;;
81801;SDS011;71199;52.490;5.448;2023-11-18T04:21:05;45.63;;;22.63;;
81801;SDS011;71199;52.490;5.448;2023-11-18T04:23:31;52.80;;;23.83;;
81801;SDS011;71199;52.490;5.448;2023-11-18T04:25:57;48.75;;;23.48;;
81801;SDS011;71199;52.490;5.448;2023-11-18T04:28:23;47.55;;;25.95;;
81801;SDS011;71199;52.490;5.448;2023-11-18T04:30:49;47.60;;;23.83;;
81801;SDS011;71199;52.490;5.448;2023-11-18T04:33:14;50.53;;;25.00;;
81801;SDS011;71199;52.490;5.448;2023-11-18T04:35:39;48.73;;;24.63;;
81801;SDS011;71199;52.490;5.448;2023-11-18T04:38:05;54.63;;;26.27;;
81801;SDS011;71199;52.490;5.448;2023-11-18T04:40:30;52.63;;;24.57;;
81801;SDS011;71199;52.490;5.448;2023-11-18T04:42:56;54.20;;;26.53;;
81801;SDS011;71199;52.490;5.448;2023-11-18T04:45:21;56.00;;;26.13;;
81801;SDS011;71199;52.490;5.448;2023-11-18T04:47:46;55.83;;;25.77;;
81801;SDS011;71199;52.490;5.448;2023-11-18T04:50:12;51.07;;;23.30;;
81801;SDS011;71199;52.490;5.448;2023-11-18T04:52:37;46.67;;;23.60;;
81801;SDS011;71199;52.490;5.448;2023-11-18T04:55:03;47.88;;;23.40;;
81801;SDS011;71199;52.490;5.448;2023-11-18T04:57:30;46.20;;;22.42;;
81801;SDS011;71199;52.490;5.448;2023-11-18T04:59:56;47.55;;;23.80;;
81801;SDS011;71199;52.490;5.448;2023-11-18T05:02:21;47.38;;;25.17;;
81801;SDS011;71199;52.490;5.448;2023-11-18T05:04:47;47.90;;;24.00;;
81801;SDS011;71199;52.490;5.448;2023-11-18T05:07:12;54.60;;;24.80;;
81801;SDS011;71199;52.490;5.448;2023-11-18T05:09:38;45.40;;;22.40;;
81801;SDS011;71199;52.490;5.448;2023-11-18T05:12:03;46.03;;;23.37;;
81801;SDS011;71199;52.490;5.448;2023-11-18T05:14:29;54.50;;;25.02;;
81801;SDS011;71199;52.490;5.448;2023-11-18T05:16:55;43.80;;;23.67;;
81801;SDS011;71199;52.490;5.448;2023-11-18T05:19:20;47.35;;;24.15;;
81801;SDS011;71199;52.490;5.448;2023-11-18T05:21:46;51.00;;;22.50;;
81801;SDS011;71199;52.490;5.448;2023-11-18T05:24:14;47.22;;;21.83;;
81801;SDS011;71199;52.490;5.448;2023-11-18T05:26:40;44.28;;;22.33;;
81801;SDS011;71199;52.490;5.448;2023-11-18T05:29:05;54.13;;;23.95;;
81801;SDS011;71199;52.490;5.448;2023-11-18T05:31:31;46.40;;;23.15;;
81801;SDS011;71199;52.490;5.448;2023-11-18T05:33:58;42.97;;;21.27;;
81801;SDS011;71199;52.490;5.448;2023-11-18T05:36:23;46.67;;;23.33;;
81801;SDS011;71199;52.490;5.448;2023-11-18T05:38:52;48.20;;;23.40;;
81801;SDS011;71199;52.490;5.448;2023-11-18T05:41:19;48.80;;;23.05;;
81801;SDS011;71199;52.490;5.448;2023-11-18T05:43:52;43.45;;;22.00;;
81801;SDS011;71199;52.490;5.448;2023-11-18T05:46:18;44.20;;;21.02;;
81801;SDS011;71199;52.490;5.448;2023-11-18T05:48:49;42.88;;;22.27;;
81801;SDS011;71199;52.490;5.448;2023-11-18T05:51:18;45.55;;;21.25;;
81801;SDS011;71199;52.490;5.448;2023-11-18T05:53:47;46.15;;;21.63;;
81801;SDS011;71199;52.490;5.448;2023-11-18T05:56:13;45.85;;;21.58;;
81801;SDS011;71199;52.490;5.448;2023-11-18T05:58:39;50.40;;;21.83;;
81801;SDS011;71199;52.490;5.448;2023-11-18T06:01:05;42.93;;;19.73;;
81801;SDS011;71199;52.490;5.448;2023-11-18T06:03:34;47.15;;;22.35;;
81801;SDS011;71199;52.490;5.448;2023-11-18T06:06:06;40.47;;;20.52;;
81801;SDS011;71199;52.490;5.448;2023-11-18T06:08:37;45.20;;;21.50;;
81801;SDS011;71199;52.490;5.448;2023-11-18T06:11:06;46.63;;;22.75;;
81801;SDS011;71199;52.490;5.448;2023-11-18T06:13:47;43.13;;;20.25;;
81801;SDS011;71199;52.490;5.448;2023-11-18T06:16:14;43.80;;;22.00;;
81801;SDS011;71199;52.490;5.448;2023-11-18T06:18:44;47.75;;;21.00;;
81801;SDS011;71199;52.490;5.448;2023-11-18T06:21:17;46.08;;;20.60;;
81801;SDS011;71199;52.490;5.448;2023-11-18T06:23:44;46.83;;;20.98;;
81801;SDS011;71199;52.490;5.448;2023-11-18T06:26:13;44.60;;;20.60;;
81801;SDS011;71199;52.490;5.448;2023-11-18T06:28:46;44.10;;;21.75;;
81801;SDS011;71199;52.490;5.448;2023-11-18T06:31:14;44.33;;;20.73;;
81801;SDS011;71199;52.490;5.448;2023-11-18T06:33:43;44.38;;;22.10;;
81801;SDS011;71199;52.490;5.448;2023-11-18T06:36:18;45.88;;;21.73;;
81801;SDS011;71199;52.490;5.448;2023-11-18T06:38:46;46.28;;;21.67;;
81801;SDS011;71199;52.490;5.448;2023-11-18T06:41:12;46.03;;;21.73;;
81801;SDS011;71199;52.490;5.448;2023-11-18T06:43:40;49.38;;;22.55;;
81801;SDS011;71199;52.490;5.448;2023-11-18T06:46:27;48.60;;;22.27;;
81801;SDS011;71199;52.490;5.448;2023-11-18T06:48:56;52.10;;;22.17;;
81801;SDS011;71199;52.490;5.448;2023-11-18T06:51:22;47.08;;;20.45;;
81801;SDS011;71199;52.490;5.448;2023-11-18T06:53:55;42.65;;;20.02;;
81801;SDS011;71199;52.490;5.448;2023-11-18T06:56:25;43.20;;;20.40;;
81801;SDS011;71199;52.490;5.448;2023-11-18T06:58:51;45.17;;;21.13;;
81801;SDS011;71199;52.490;5.448;2023-11-18T07:01:17;44.65;;;21.23;;
81801;SDS011;71199;52.490;5.448;2023-11-18T07:03:46;42.33;;;20.02;;
81801;SDS011;71199;52.490;5.448;2023-11-18T07:06:19;47.25;;;20.83;;
81801;SDS011;71199;52.490;5.448;2023-11-18T07:08:50;43.90;;;20.08;;
81801;SDS011;71199;52.490;5.448;2023-11-18T07:11:16;43.00;;;20.15;;
81801;SDS011;71199;52.490;5.448;2023-11-18T07:13:42;42.58;;;19.23;;
81801;SDS011;71199;52.490;5.448;2023-11-18T07:16:08;42.28;;;18.38;;
81801;SDS011;71199;52.490;5.448;2023-11-18T07:18:37;44.30;;;18.52;;
81801;SDS011;71199;52.490;5.448;2023-11-18T07:21:03;46.35;;;19.50;;
81801;SDS011;71199;52.490;5.448;2023-11-18T07:23:30;41.85;;;20.52;;
81801;SDS011;71199;52.490;5.448;2023-11-18T07:25:58;39.13;;;18.60;;
81801;SDS011;71199;52.490;5.448;2023-11-18T07:28:24;51.28;;;20.20;;
81801;SDS011;71199;52.490;5.448;2023-11-18T07:30:49;37.90;;;18.00;;
81801;SDS011;71199;52.490;5.448;2023-11-18T07:33:15;45.00;;;20.23;;
81801;SDS011;71199;52.490;5.448;2023-11-18T07:35:41;46.45;;;20.23;;
81801;SDS011;71199;52.490;5.448;2023-11-18T07:38:07;39.80;;;18.85;;
81801;SDS011;71199;52.490;5.448;2023-11-18T07:40:33;42.72;;;19.10;;
81801;SDS011;71199;52.490;5.448;2023-11-18T07:42:59;42.63;;;18.85;;
81801;SDS011;71199;52.490;5.448;2023-11-18T07:45:27;39.70;;;18.05;;
81801;SDS011;71199;52.490;5.448;2023-11-18T07:47:54;49.05;;;19.17;;
81801;SDS011;71199;52.490;5.448;2023-11-18T07:50:19;36.63;;;18.25;;
81801;SDS011;71199;52.490;5.448;2023-11-18T07:52:49;38.22;;;17.92;;
81801;SDS011;71199;52.490;5.448;2023-11-18T07:55:15;37.78;;;17.70;;
81801;SDS011;71199;52.490;5.448;2023-11-18T07:57:41;40.15;;;17.00;;
81801;SDS011;71199;52.490;5.448;2023-11-18T08:00:07;40.22;;;17.85;;
81801;SDS011;71199;52.490;5.448;2023-11-18T08:02:36;42.08;;;18.80;;
81801;SDS011;71199;52.490;5.448;2023-11-18T08:05:02;40.08;;;17.63;;
81801;SDS011;71199;52.490;5.448;2023-11-18T08:07:28;34.90;;;17.73;;
81801;SDS011;71199;52.490;5.448;2023-11-18T08:09:54;41.72;;;17.38;;
81801;SDS011;71199;52.490;5.448;2023-11-18T08:12:19;34.70;;;16.48;;
81801;SDS011;71199;52.490;5.448;2023-11-18T08:14:45;39.28;;;17.42;;
81801;SDS011;71199;52.490;5.448;2023-11-18T08:17:12;42.95;;;20.45;;
81801;SDS011;71199;52.490;5.448;2023-11-18T08:19:38;38.13;;;17.10;;
81801;SDS011;71199;52.490;5.448;2023-11-18T08:22:03;36.08;;;16.75;;
81801;SDS011;71199;52.490;5.448;2023-11-18T08:24:29;32.42;;;16.88;;
81801;SDS011;71199;52.490;5.448;2023-11-18T08:26:55;36.27;;;15.57;;
81801;SDS011;71199;52.490;5.448;2023-11-18T08:29:21;33.63;;;15.18;;
81801;SDS011;71199;52.490;5.448;2023-11-18T08:31:46;32.28;;;14.38;;
81801;SDS011;71199;52.490;5.448;2023-11-18T08:34:12;32.97;;;15.48;;
81801;SDS011;71199;52.490;5.448;2023-11-18T08:36:37;36.60;;;15.65;;
81801;SDS011;71199;52.490;5.448;2023-11-18T08:39:02;34.20;;;14.27;;
81801;SDS011;71199;52.490;5.448;2023-11-18T08:41:29;33.47;;;15.25;;
81801;SDS011;71199;52.490;5.448;2023-11-18T08:43:56;32.38;;;13.95;;
81801;SDS011;71199;52.490;5.448;2023-11-18T08:46:22;31.45;;;14.40;;
81801;SDS011;71199;52.490;5.448;2023-11-18T08:48:47;30.77;;;14.15;;
81801;SDS011;71199;52.490;5.448;2023-11-18T08:51:13;29.38;;;13.55;;
81801;SDS011;71199;52.490;5.448;2023-11-18T08:53:38;31.25;;;14.43;;
81801;SDS011;71199;52.490;5.448;2023-11-18T08:56:08;33.58;;;14.93;;
81801;SDS011;71199;52.490;5.448;2023-11-18T08:58:39;26.10;;;13.65;;
81801;SDS011;71199;52.490;5.448;2023-11-18T09:03:38;29.27;;;14.18;;
81801;SDS011;71199;52.490;5.448;2023-11-18T09:06:08;30.35;;;13.38;;
81801;SDS011;71199;52.490;5.448;2023-11-18T09:08:44;26.50;;;13.27;;
81801;SDS011;71199;52.490;5.448;2023-11-18T09:11:12;26.40;;;13.63;;
81801;SDS011;71199;52.490;5.448;2023-11-18T09:13:45;33.33;;;14.77;;
81801;SDS011;71199;52.490;5.448;2023-11-18T09:16:14;28.80;;;13.00;;
81801;SDS011;71199;52.490;5.448;2023-11-18T09:18:41;23.20;;;12.65;;
81801;SDS011;71199;52.490;5.448;2023-11-18T09:21:10;23.48;;;12.38;;
81801;SDS011;71199;52.490;5.448;2023-11-18T09:23:48;25.27;;;12.70;;
81801;SDS011;71199;52.490;5.448;2023-11-18T09:26:13;27.88;;;13.13;;
81801;SDS011;71199;52.490;5.448;2023-11-18T09:28:39;24.65;;;12.77;;
81801;SDS011;71199;52.490;5.448;2023-11-18T09:31:05;30.08;;;13.13;;
81801;SDS011;71199;52.490;5.448;2023-11-18T09:33:31;22.25;;;12.23;;
81801;SDS011;71199;52.490;5.448;2023-11-18T09:35:58;24.35;;;12.32;;
81801;SDS011;71199;52.490;5.448;2023-11-18T09:38:32;23.85;;;11.63;;
81801;SDS011;71199;52.490;5.448;2023-11-18T09:41:00;20.42;;;11.35;;
81801;SDS011;71199;52.490;5.448;2023-11-18T09:43:32;23.10;;;11.27;;
81801;SDS011;71199;52.490;5.448;2023-11-18T09:46:45;20.05;;;10.32;;
81801;SDS011;71199;52.490;5.448;2023-11-18T09:51:58;20.15;;;10.50;;
81801;SDS011;71199;52.490;5.448;2023-11-18T09:54:39;16.90;;;10.20;;
81801;SDS011;71199;52.490;5.448;2023-11-18T09:57:16;16.83;;;9.20;;
81801;SDS011;71199;52.490;5.448;2023-11-18T10:00:11;19.95;;;10.35;;
81801;SDS011;71199;52.490;5.448;2023-11-18T10:02:51;22.60;;;10.20;;
81801;SDS011;71199;52.490;5.448;2023-11-18T10:05:24;18.13;;;9.77;;
81801;SDS011;71199;52.490;5.448;2023-11-18T10:10:17;19.15;;;9.85;;
81801;SDS011;71199;52.490;5.448;2023-11-18T10:12:47;16.98;;;10.30;;
81801;SDS011;71199;52.490;5.448;2023-11-18T10:15:17;17.65;;;9.48;;
81801;SDS011;71199;52.490;5.448;2023-11-18T10:17:48;16.75;;;9.88;;
81801;SDS011;71199;52.490;5.448;2023-11-18T10:20:44;18.83;;;9.70;;
81801;SDS011;71199;52.490;5.448;2023-11-18T10:23:11;19.90;;;10.75;;
81801;SDS011;71199;52.490;5.448;2023-11-18T10:25:41;21.02;;;9.93;;
81801;SDS011;71199;52.490;5.448;2023-11-18T10:28:20;22.35;;;11.45;;
81801;SDS011;71199;52.490;5.448;2023-11-18T10:30:53;20.95;;;10.80;;
81801;SDS011;71199;52.490;5.448;2023-11-18T10:33:22;19.40;;;10.50;;
81801;SDS011;71199;52.490;5.448;2023-11-18T10:35:55;24.65;;;11.18;;
81801;SDS011;71199;52.490;5.448;2023-11-18T10:38:21;27.17;;;11.25;;
81801;SDS011;71199;52.490;5.448;2023-11-18T10:40:54;19.60;;;10.20;;
81801;SDS011;71199;52.490;5.448;2023-11-18T10:43:24;19.73;;;10.45;;
81801;SDS011;71199;52.490;5.448;2023-11-18T10:45:52;24.08;;;10.48;;
81801;SDS011;71199;52.490;5.448;2023-11-18T10:48:37;19.50;;;9.20;;
81801;SDS011;71199;52.490;5.448;2023-11-18T10:51:07;22.48;;;11.00;;
81801;SDS011;71199;52.490;5.448;2023-11-18T10:53:33;21.67;;;10.07;;
81801;SDS011;71199;52.490;5.448;2023-11-18T10:56:03;19.77;;;9.68;;
81801;SDS011;71199;52.490;5.448;2023-11-18T10:58:41;20.50;;;9.88;;
81801;SDS011;71199;52.490;5.448;2023-11-18T11:01:06;20.55;;;9.75;;
81801;SDS011;71199;52.490;5.448;2023-11-18T11:03:52;19.92;;;9.45;;
81801;SDS011;71199;52.490;5.448;2023-11-18T11:06:20;17.63;;;9.93;;
81801;SDS011;71199;52.490;5.448;2023-11-18T11:08:48;17.13;;;9.30;;
81801;SDS011;71199;52.490;5.448;2023-11-18T11:11:16;22.58;;;9.68;;
81801;SDS011;71199;52.490;5.448;2023-11-18T11:13:49;20.10;;;10.10;;
81801;SDS011;71199;52.490;5.448;2023-11-18T11:16:19;19.15;;;9.27;;
81801;SDS011;71199;52.490;5.448;2023-11-18T11:18:47;23.10;;;9.45;;
81801;SDS011;71199;52.490;5.448;2023-11-18T11:21:24;29.90;;;10.05;;
81801;SDS011;71199;52.490;5.448;2023-11-18T11:26:50;18.08;;;9.90;;
81801;SDS011;71199;52.490;5.448;2023-11-18T11:29:36;21.23;;;8.98;;
81801;SDS011;71199;52.490;5.448;2023-11-18T11:35:01;17.70;;;10.00;;
81801;SDS011;71199;52.490;5.448;2023-11-18T11:37:33;21.27;;;10.18;;
81801;SDS011;71199;52.490;5.448;2023-11-18T11:40:02;18.38;;;9.25;;
81801;SDS011;71199;52.490;5.448;2023-11-18T11:42:37;20.10;;;9.25;;
81801;SDS011;71199;52.490;5.448;2023-11-18T11:45:07;19.02;;;9.57;;
81801;SDS011;71199;52.490;5.448;2023-11-18T11:47:45;16.35;;;9.13;;
81801;SDS011;71199;52.490;5.448;2023-11-18T11:50:16;22.45;;;9.45;;
81801;SDS011;71199;52.490;5.448;2023-11-18T11:52:48;20.17;;;9.38;;
81801;SDS011;71199;52.490;5.448;2023-11-18T11:57:58;17.55;;;9.05;;
81801;SDS011;71199;52.490;5.448;2023-11-18T12:00:24;19.52;;;9.45;;
81801;SDS011;71199;52.490;5.448;2023-11-18T12:02:52;17.27;;;8.65;;
81801;SDS011;71199;52.490;5.448;2023-11-18T12:05:24;19.90;;;9.30;;
81801;SDS011;71199;52.490;5.448;2023-11-18T12:07:54;18.48;;;9.07;;
81801;SDS011;71199;52.490;5.448;2023-11-18T12:10:20;18.35;;;9.30;;
81801;SDS011;71199;52.490;5.448;2023-11-18T12:12:49;16.10;;;10.25;;
81801;SDS011;71199;52.490;5.448;2023-11-18T12:15:20;16.52;;;8.70;;
81801;SDS011;71199;52.490;5.448;2023-11-18T12:18:41;18.75;;;8.35;;
81801;SDS011;71199;52.490;5.448;2023-11-18T12:21:08;16.92;;;8.75;;
81801;SDS011;71199;52.490;5.448;2023-11-18T12:24:14;17.50;;;7.63;;
81801;SDS011;71199;52.490;5.448;2023-11-18T12:26:43;16.75;;;7.13;;
81801;SDS011;71199;52.490;5.448;2023-11-18T12:29:31;11.40;;;7.13;;
81801;SDS011;71199;52.490;5.448;2023-11-18T12:31:59;18.77;;;8.35;;
81801;SDS011;71199;52.490;5.448;2023-11-18T12:34:24;14.30;;;7.53;;
81801;SDS011;71199;52.490;5.448;2023-11-18T12:36:58;16.58;;;7.35;;
81801;SDS011;71199;52.490;5.448;2023-11-18T12:39:59;12.05;;;7.32;;
81801;SDS011;71199;52.490;5.448;2023-11-18T12:43:02;13.43;;;7.07;;
81801;SDS011;71199;52.490;5.448;2023-11-18T12:48:39;16.23;;;7.50;;
81801;SDS011;71199;52.490;5.448;2023-11-18T12:51:09;12.13;;;6.47;;
81801;SDS011;71199;52.490;5.448;2023-11-18T12:53:44;16.55;;;8.25;;
81801;SDS011;71199;52.490;5.448;2023-11-18T12:56:16;14.27;;;7.30;;
81801;SDS011;71199;52.490;5.448;2023-11-18T12:58:45;13.02;;;7.68;;
81801;SDS011;71199;52.490;5.448;2023-11-18T13:01:12;14.38;;;6.63;;
81801;SDS011;71199;52.490;5.448;2023-11-18T13:03:42;12.98;;;6.78;;
81801;SDS011;71199;52.490;5.448;2023-11-18T13:06:09;16.27;;;7.20;;
81801;SDS011;71199;52.490;5.448;2023-11-18T13:08:36;12.75;;;7.57;;
81801;SDS011;71199;52.490;5.448;2023-11-18T13:11:05;15.48;;;7.13;;
81801;SDS011;71199;52.490;5.448;2023-11-18T13:13:36;13.15;;;6.93;;
81801;SDS011;71199;52.490;5.448;2023-11-18T13:16:02;10.95;;;6.40;;
81801;SDS011;71199;52.490;5.448;2023-11-18T13:18:29;9.93;;;5.38;;
81801;SDS011;71199;52.490;5.448;2023-11-18T13:21:06;13.05;;;6.90;;
81801;SDS011;71199;52.490;5.448;2023-11-18T13:23:32;11.07;;;5.77;;
81801;SDS011;71199;52.490;5.448;2023-11-18T13:25:57;15.52;;;6.88;;
81801;SDS011;71199;52.490;5.448;2023-11-18T13:28:25;9.20;;;5.30;;
81801;SDS011;71199;52.490;5.448;2023-11-18T13:30:51;11.70;;;5.72;;
81801;SDS011;71199;52.490;5.448;2023-11-18T13:33:17;13.55;;;6.50;;
81801;SDS011;71199;52.490;5.448;2023-11-18T13:35:42;12.43;;;5.90;;
81801;SDS011;71199;52.490;5.448;2023-11-18T13:38:09;10.05;;;5.10;;
81801;SDS011;71199;52.490;5.448;2023-11-18T13:40:45;11.30;;;4.57;;
81801;SDS011;71199;52.490;5.448;2023-11-18T13:43:14;10.60;;;4.95;;
81801;SDS011;71199;52.490;5.448;2023-11-18T13:45:40;7.53;;;4.47;;
81801;SDS011;71199;52.490;5.448;2023-11-18T13:48:07;6.47;;;4.47;;
81801;SDS011;71199;52.490;5.448;2023-11-18T13:50:37;7.90;;;4.43;;
81801;SDS011;71199;52.490;5.448;2023-11-18T13:53:03;7.50;;;4.65;;
81801;SDS011;71199;52.490;5.448;2023-11-18T13:55:30;8.27;;;4.70;;
81801;SDS011;71199;52.490;5.448;2023-11-18T13:57:57;7.00;;;5.45;;
81801;SDS011;71199;52.490;5.448;2023-11-18T14:00:24;8.85;;;4.82;;
81801;SDS011;71199;52.490;5.448;2023-11-18T14:02:52;8.82;;;4.30;;
81801;SDS011;71199;52.490;5.448;2023-11-18T14:05:21;6.95;;;4.30;;
81801;SDS011;71199;52.490;5.448;2023-11-18T14:07:49;9.90;;;4.10;;
81801;SDS011;71199;52.490;5.448;2023-11-18T14:10:21;7.13;;;4.07;;
81801;SDS011;71199;52.490;5.448;2023-11-18T14:13:05;6.47;;;3.92;;
81801;SDS011;71199;52.490;5.448;2023-11-18T14:15:31;8.57;;;4.90;;
81801;SDS011;71199;52.490;5.448;2023-11-18T14:18:00;10.63;;;4.38;;
81801;SDS011;71199;52.490;5.448;2023-11-18T14:20:26;7.60;;;3.78;;
81801;SDS011;71199;52.490;5.448;2023-11-18T14:22:51;6.67;;;4.33;;
81801;SDS011;71199;52.490;5.448;2023-11-18T14:25:17;8.73;;;4.97;;
81801;SDS011;71199;52.490;5.448;2023-11-18T14:27:42;6.57;;;4.23;;
81801;SDS011;71199;52.490;5.448;2023-11-18T14:30:08;8.67;;;4.50;;
81801;SDS011;71199;52.490;5.448;2023-11-18T14:32:34;7.55;;;4.68;;
81801;SDS011;71199;52.490;5.448;2023-11-18T14:35:00;8.65;;;3.85;;
81801;SDS011;71199;52.490;5.448;2023-11-18T14:37:26;6.78;;;3.72;;
81801;SDS011;71199;52.490;5.448;2023-11-18T14:39:51;6.15;;;4.15;;
81801;SDS011;71199;52.490;5.448;2023-11-18T14:42:19;5.95;;;3.63;;
81801;SDS011;71199;52.490;5.448;2023-11-18T14:44:48;6.93;;;4.45;;
81801;SDS011;71199;52.490;5.448;2023-11-18T14:47:14;5.37;;;3.60;;
81801;SDS011;71199;52.490;5.448;2023-11-18T14:49:39;6.03;;;3.67;;
81801;SDS011;71199;52.490;5.448;2023-11-18T14:52:06;5.63;;;3.38;;
81801;SDS011;71199;52.490;5.448;2023-11-18T14:54:32;6.28;;;3.50;;